createdAt,value
2023-06-06T00:00:16.448Z,101462.56
2023-06-06T00:02:21.136Z,101458.31
2023-06-06T00:04:22.858Z,101453.06
2023-06-06T00:06:25.831Z,101462.06
2023-06-06T00:08:29.276Z,101467.50
2023-06-06T00:10:31.317Z,101455.94
2023-06-06T00:12:33.281Z,101456.94
2023-06-06T00:14:35.059Z,101467.63
2023-06-06T00:16:36.895Z,101468.59
2023-06-06T00:18:40.106Z,101451.66
2023-06-06T00:20:42.009Z,101457.97
2023-06-06T00:22:43.985Z,101445.59
2023-06-06T00:24:47.144Z,101440.22
2023-06-06T00:26:48.757Z,101446.53
2023-06-06T00:28:50.215Z,101449.22
2023-06-06T00:30:51.869Z,101454.69
2023-06-06T00:32:53.529Z,101452.00
2023-06-06T00:34:55.594Z,101450.28
2023-06-06T00:36:57.298Z,101444.06
2023-06-06T00:38:58.816Z,101452.19
2023-06-06T00:41:00.334Z,101454.03
2023-06-06T00:43:01.921Z,101450.50
2023-06-06T00:45:03.662Z,101452.19
2023-06-06T00:47:05.920Z,101450.50
2023-06-06T00:49:11.427Z,101444.28
2023-06-06T00:51:13.126Z,101446.97
2023-06-06T00:53:15.200Z,101447.94
2023-06-06T00:55:17.683Z,101446.22
2023-06-06T00:57:19.445Z,101444.38
2023-06-06T00:59:24.267Z,101439.16
2023-06-06T01:01:30.098Z,101437.34
2023-06-06T01:03:32.532Z,101440.97
2023-06-06T01:05:34.032Z,101440.97
2023-06-06T01:07:36.669Z,101444.59
2023-06-06T01:09:38.554Z,101439.38
2023-06-06T01:12:03.278Z,101441.19
2023-06-06T01:14:10.707Z,101442.13
2023-06-06T01:16:18.741Z,101439.56
2023-06-06T01:18:22.802Z,101437.84
2023-06-06T01:20:25.141Z,101440.41
2023-06-06T01:22:28.546Z,101437.00
2023-06-06T01:24:30.278Z,101427.38
2023-06-06T01:26:31.776Z,101425.66
2023-06-06T01:28:33.317Z,101429.41
2023-06-06T01:30:35.202Z,101430.38
2023-06-06T01:33:00.838Z,101426.94
2023-06-06T01:35:37.832Z,101426.09
2023-06-06T01:37:49.875Z,101419.88
2023-06-06T01:39:56.658Z,101425.22
2023-06-06T01:41:59.206Z,101429.72
2023-06-06T01:44:01.067Z,101408.44
2023-06-06T01:46:02.917Z,101419.22
2023-06-06T01:48:05.442Z,101407.47
2023-06-06T01:50:08.804Z,101418.38
2023-06-06T01:52:10.307Z,101425.53
2023-06-06T01:54:12.188Z,101425.53
2023-06-06T01:56:15.068Z,101421.16
2023-06-06T01:58:18.109Z,101423.84
2023-06-06T02:00:20.194Z,101421.16
2023-06-06T02:02:21.781Z,101422.97
2023-06-06T02:04:23.883Z,101422.22
2023-06-06T02:06:25.525Z,101424.88
2023-06-06T02:08:26.963Z,101423.19
2023-06-06T02:10:28.492Z,101398.34
2023-06-06T02:12:29.960Z,101419.88
2023-06-06T02:14:31.406Z,101419.88
2023-06-06T02:16:33.050Z,101419.00
2023-06-06T02:18:34.641Z,101420.84
2023-06-06T02:20:36.146Z,101424.47
2023-06-06T02:22:38.502Z,101421.78
2023-06-06T02:24:41.840Z,101412.03
2023-06-06T02:26:43.569Z,101421.97
2023-06-06T02:28:45.064Z,101422.97
2023-06-06T02:30:46.884Z,101422.97
2023-06-06T02:32:48.496Z,101417.63
2023-06-06T02:34:50.084Z,101415.91
2023-06-06T02:36:52.575Z,101421.25
2023-06-06T02:38:54.059Z,101431.94
2023-06-06T02:40:55.644Z,101424.00
2023-06-06T02:42:57.121Z,101425.84
2023-06-06T02:44:58.561Z,101424.13
2023-06-06T02:47:00.060Z,101419.66
2023-06-06T02:49:01.831Z,101420.59
2023-06-06T02:51:04.339Z,101417.06
2023-06-06T02:53:07.391Z,101416.22
2023-06-06T02:55:08.973Z,101419.84
2023-06-06T02:57:10.456Z,101417.16
2023-06-06T02:59:12.125Z,101409.25
2023-06-06T03:01:14.067Z,101410.22
2023-06-06T03:03:15.575Z,101406.66
2023-06-06T03:05:18.203Z,101400.47
2023-06-06T03:07:21.384Z,101398.75
2023-06-06T03:09:25.546Z,101401.44
2023-06-06T03:11:27.032Z,101405.94
2023-06-06T03:13:28.670Z,101411.41
2023-06-06T03:15:30.319Z,101410.53
2023-06-06T03:17:32.033Z,101407.00
2023-06-06T03:19:33.545Z,101407.84
2023-06-06T03:21:35.111Z,101414.13
2023-06-06T03:23:36.553Z,101409.72
2023-06-06T03:25:40.385Z,101408.78
2023-06-06T03:27:42.919Z,101405.38
2023-06-06T03:29:44.462Z,101409.00
2023-06-06T03:31:45.952Z,101407.28
2023-06-06T03:33:47.448Z,101409.94
2023-06-06T03:35:48.897Z,101405.44
2023-06-06T03:37:50.541Z,101404.59
2023-06-06T03:39:52.018Z,101417.97
2023-06-06T03:41:53.493Z,101411.88
2023-06-06T03:43:55.295Z,101407.38
2023-06-06T03:45:57.037Z,101412.75
2023-06-06T03:47:58.637Z,101411.97
2023-06-06T03:50:00.603Z,101415.47
2023-06-06T03:52:02.054Z,101421.78
2023-06-06T03:54:03.750Z,101420.09
2023-06-06T03:56:06.001Z,101420.09
2023-06-06T03:58:08.486Z,101424.56
2023-06-06T04:00:14.787Z,101409.72
2023-06-06T04:02:17.764Z,101422.84
2023-06-06T04:04:19.917Z,101421.13
2023-06-06T04:10:34.462Z,101419.44
2023-06-06T04:12:36.112Z,101425.75
2023-06-06T04:14:37.886Z,101421.34
2023-06-06T04:16:41.501Z,101427.53
2023-06-06T04:18:43.128Z,101425.81
2023-06-06T04:20:45.564Z,101426.69
2023-06-06T04:22:47.012Z,101426.81
2023-06-06T04:24:48.584Z,101427.78
2023-06-06T04:26:50.291Z,101423.38
2023-06-06T04:28:54.228Z,101421.56
2023-06-06T04:30:55.999Z,101430.44
2023-06-06T04:32:58.004Z,101426.88
2023-06-06T04:35:00.119Z,101418.88
2023-06-06T04:37:05.293Z,101420.72
2023-06-06T04:39:08.152Z,101419.88
2023-06-06T04:41:32.846Z,101418.88
2023-06-06T04:43:31.992Z,101422.53
2023-06-06T04:45:33.625Z,101427.00
2023-06-06T04:47:36.306Z,101425.22
2023-06-06T04:49:39.834Z,101419.94
2023-06-06T04:51:44.344Z,101429.78
2023-06-06T04:53:46.131Z,101422.63
2023-06-06T04:55:48.664Z,101422.63
2023-06-06T04:57:50.195Z,101420.91
2023-06-06T04:59:52.251Z,101421.78
2023-06-06T05:01:56.400Z,101419.22
2023-06-06T05:03:57.990Z,101418.22
2023-06-06T05:05:59.547Z,101417.38
2023-06-06T05:08:00.974Z,101417.38
2023-06-06T05:12:09.101Z,101422.84
2023-06-06T05:14:10.589Z,101418.34
2023-06-06T05:16:12.398Z,101428.19
2023-06-06T05:22:21.865Z,101427.31
2023-06-06T05:24:23.400Z,101420.25
2023-06-06T05:26:26.280Z,101429.13
2023-06-06T05:28:28.738Z,101422.91
2023-06-06T05:32:37.379Z,101423.03
2023-06-06T05:36:46.187Z,101422.38
2023-06-06T05:38:47.714Z,101425.16
2023-06-06T05:40:49.204Z,101427.06
2023-06-06T05:49:05.606Z,101424.50
2023-06-06T05:51:09.821Z,101432.50
2023-06-06T05:53:12.926Z,101430.69
2023-06-06T05:55:27.930Z,101427.06
2023-06-06T05:57:29.409Z,101431.44
2023-06-06T05:59:31.254Z,101428.78
2023-06-06T06:01:32.804Z,101428.66
2023-06-06T06:03:34.621Z,101440.22
2023-06-06T06:05:36.447Z,101438.41
2023-06-06T06:07:38.912Z,101442.03
2023-06-06T06:09:40.531Z,101434.00
2023-06-06T06:11:42.179Z,101438.50
2023-06-06T06:13:43.625Z,101434.97
2023-06-06T06:15:45.115Z,101439.47
2023-06-06T06:17:47.127Z,101438.63
2023-06-06T06:21:55.091Z,101442.13
2023-06-06T06:23:56.589Z,101439.56
2023-06-06T06:25:58.190Z,101443.09
2023-06-06T06:27:59.914Z,101447.59
2023-06-06T06:30:03.159Z,101435.06
2023-06-06T06:32:05.090Z,101447.47
2023-06-06T06:34:06.657Z,101434.22
2023-06-06T06:36:08.381Z,101440.31
2023-06-06T06:38:10.098Z,101435.84
2023-06-06T06:40:11.939Z,101448.25
2023-06-06T06:42:13.503Z,101440.13
2023-06-06T06:44:15.057Z,101440.97
2023-06-06T06:46:16.563Z,101445.34
2023-06-06T06:48:18.195Z,101446.22
2023-06-06T06:50:19.826Z,101450.69
2023-06-06T06:52:22.128Z,101440.00
2023-06-06T06:54:25.423Z,101447.94
2023-06-06T06:56:28.874Z,101443.44
2023-06-06T06:58:35.010Z,101442.50
2023-06-06T07:00:36.734Z,101445.94
2023-06-06T07:02:40.668Z,101447.63
2023-06-06T07:04:43.224Z,101444.88
2023-06-06T07:06:45.136Z,101447.44
2023-06-06T07:08:46.797Z,101446.47
2023-06-06T07:10:49.174Z,101452.78
2023-06-06T07:12:51.714Z,101444.66
2023-06-06T07:14:53.248Z,101447.22
2023-06-06T07:16:56.637Z,101446.25
2023-06-06T07:18:59.500Z,101440.06
2023-06-06T07:21:00.954Z,101447.84
2023-06-06T07:23:03.900Z,101450.47
2023-06-06T07:25:06.393Z,101445.09
2023-06-06T07:27:10.411Z,101443.28
2023-06-06T07:29:12.151Z,101450.22
2023-06-06T07:31:14.533Z,101443.81
2023-06-06T07:33:16.318Z,101398.22
2023-06-06T07:35:20.597Z,101441.91
2023-06-06T07:37:22.476Z,101444.69
2023-06-06T07:39:24.154Z,101438.47
2023-06-06T07:41:27.735Z,101442.97
2023-06-06T07:43:29.286Z,101440.31
2023-06-06T07:45:30.723Z,101438.59
2023-06-06T07:47:32.294Z,101441.38
2023-06-06T07:49:33.915Z,101443.16
2023-06-06T07:51:35.402Z,101439.75
2023-06-06T07:53:36.945Z,101442.31
2023-06-06T07:55:38.997Z,101450.34
2023-06-06T07:57:40.742Z,101444.16
2023-06-06T07:59:43.310Z,101446.59
2023-06-06T08:01:46.102Z,101437.53
2023-06-06T08:03:52.027Z,101444.47
2023-06-06T08:05:53.731Z,101436.44
2023-06-06T08:07:55.850Z,101434.56
2023-06-06T08:09:57.601Z,101431.91
2023-06-06T08:11:59.458Z,101432.66
2023-06-06T08:14:01.144Z,101431.72
2023-06-06T08:16:02.606Z,101428.06
2023-06-06T08:18:04.329Z,101436.84
2023-06-06T08:20:09.818Z,101432.38
2023-06-06T08:22:11.647Z,101436.72
2023-06-06T08:24:13.204Z,101427.84
2023-06-06T08:26:14.789Z,101435.78
2023-06-06T08:28:16.432Z,101436.53
2023-06-06T08:30:18.099Z,101438.25
2023-06-06T08:32:19.822Z,101438.25
2023-06-06T08:34:22.184Z,101439.97
2023-06-06T08:36:23.604Z,101436.34
2023-06-06T08:38:25.095Z,101431.72
2023-06-06T08:40:26.849Z,101440.63
2023-06-06T08:42:31.080Z,101430.00
2023-06-06T08:44:32.797Z,101437.19
2023-06-06T08:46:36.832Z,101428.31
2023-06-06T08:48:39.544Z,101440.69
2023-06-06T08:50:42.350Z,101436.22
2023-06-06T08:52:43.913Z,101441.56
2023-06-06T08:54:46.484Z,101436.34
2023-06-06T08:56:48.734Z,101437.19
2023-06-06T08:58:51.330Z,101435.34
2023-06-06T09:00:52.960Z,101440.63
2023-06-06T09:02:55.530Z,101425.38
2023-06-06T09:04:57.545Z,101431.94
2023-06-06T09:07:01.980Z,101442.53
2023-06-06T09:09:03.638Z,101447.88
2023-06-06T09:11:05.143Z,101449.72
2023-06-06T09:13:08.479Z,101446.03
2023-06-06T09:15:10.631Z,101445.31
2023-06-06T09:17:18.445Z,101440.69
2023-06-06T09:19:26.464Z,101442.63
2023-06-06T09:21:34.370Z,101439.09
2023-06-06T09:23:36.053Z,101439.00
2023-06-06T09:25:43.371Z,101437.06
2023-06-06T09:27:45.636Z,101436.09
2023-06-06T09:29:47.164Z,101434.31
2023-06-06T09:31:50.196Z,101430.66
2023-06-06T09:33:55.955Z,101436.97
2023-06-06T09:36:04.850Z,101434.31
2023-06-06T09:38:08.846Z,101429.81
2023-06-06T09:40:17.747Z,101431.63
2023-06-06T09:42:19.318Z,101427.03
2023-06-06T09:44:22.053Z,101427.03
2023-06-06T09:46:24.618Z,101410.91
2023-06-06T09:48:28.457Z,101418.91
2023-06-06T09:50:30.273Z,101425.94
2023-06-06T09:52:31.971Z,101421.47
2023-06-06T09:54:33.786Z,101420.53
2023-06-06T09:56:40.187Z,101424.16
2023-06-06T09:58:42.258Z,101408.00
2023-06-06T10:00:47.460Z,101421.38
2023-06-06T10:02:49.590Z,101410.56
2023-06-06T10:04:53.136Z,101412.38
2023-06-06T10:06:55.493Z,101414.94
2023-06-06T10:08:58.503Z,101407.78
2023-06-06T10:11:00.040Z,101404.25
2023-06-06T10:13:02.243Z,101400.72
2023-06-06T10:15:04.641Z,101396.34
2023-06-06T10:17:07.888Z,101405.13
2023-06-06T10:19:09.829Z,101405.84
2023-06-06T10:21:12.496Z,101406.72
2023-06-06T10:23:14.387Z,101398.69
2023-06-06T10:25:18.132Z,101388.00
2023-06-06T10:27:22.115Z,101386.16
2023-06-06T10:29:23.754Z,101398.59
2023-06-06T10:31:28.810Z,101396.88
2023-06-06T10:33:34.315Z,101390.69
2023-06-06T10:35:37.945Z,101390.56
2023-06-06T10:37:39.465Z,101393.25
2023-06-06T10:39:42.960Z,101397.63
2023-06-06T10:41:53.943Z,101389.50
2023-06-06T10:43:55.897Z,101385.97
2023-06-06T10:45:57.554Z,101383.19
2023-06-06T10:48:02.237Z,101384.03
2023-06-06T10:50:04.059Z,101385.84
2023-06-06T10:52:06.335Z,101384.03
2023-06-06T10:54:17.666Z,101344.38
2023-06-06T10:56:31.962Z,101382.13
2023-06-06T10:58:34.463Z,101377.53
2023-06-06T11:00:36.826Z,101380.09
2023-06-06T11:02:40.437Z,101372.06
2023-06-06T11:04:42.031Z,101368.31
2023-06-06T11:06:43.529Z,101373.53
2023-06-06T11:08:50.791Z,101366.16
2023-06-06T11:11:12.233Z,101366.38
2023-06-06T11:13:27.334Z,101363.72
2023-06-06T11:15:31.686Z,101362.84
2023-06-06T11:18:03.050Z,101354.69
2023-06-06T11:20:05.084Z,101361.66
2023-06-06T11:22:06.620Z,101353.22
2023-06-06T11:24:08.898Z,101350.41
2023-06-06T11:26:13.425Z,101346.66
2023-06-06T11:28:22.812Z,101342.06
2023-06-06T11:30:27.248Z,101350.59
2023-06-06T11:32:28.869Z,101352.31
2023-06-06T11:34:33.448Z,101342.47
2023-06-06T11:36:40.961Z,101336.94
2023-06-06T11:38:43.164Z,101342.91
2023-06-06T11:40:46.030Z,101344.72
2023-06-06T11:42:48.145Z,101345.28
2023-06-06T11:44:49.659Z,101347.94
2023-06-06T11:46:52.324Z,101347.81
2023-06-06T11:49:01.758Z,101339.78
2023-06-06T11:51:15.819Z,101334.31
2023-06-06T11:53:28.371Z,101335.47
2023-06-06T11:55:39.644Z,101331.28
2023-06-06T11:57:42.073Z,101324.28
2023-06-06T11:59:45.308Z,101326.88
2023-06-06T12:02:00.000Z,101335.00
2023-06-06T12:04:01.881Z,101337.59
2023-06-06T12:06:06.071Z,101325.16
2023-06-06T12:08:07.922Z,101313.84
2023-06-06T12:10:09.602Z,101324.94
2023-06-06T12:12:11.701Z,101320.81
2023-06-06T12:14:13.290Z,101319.41
2023-06-06T12:16:22.084Z,101320.16
2023-06-06T12:18:23.650Z,101312.88
2023-06-06T12:20:27.970Z,101317.00
2023-06-06T12:22:30.270Z,101314.00
2023-06-06T12:24:32.789Z,101320.19
2023-06-06T12:26:43.978Z,101315.59
2023-06-06T12:28:59.085Z,101316.22
2023-06-06T12:31:00.677Z,101315.41
2023-06-06T12:33:04.138Z,101314.94
2023-06-06T12:35:06.936Z,101309.47
2023-06-06T12:37:11.025Z,101312.06
2023-06-06T12:39:13.985Z,101318.13
2023-06-06T12:41:15.454Z,101312.69
2023-06-06T12:43:17.038Z,101286.38
2023-06-06T12:45:19.278Z,101297.59
2023-06-06T12:47:22.465Z,101295.16
2023-06-06T12:49:23.974Z,101302.72
2023-06-06T12:51:25.494Z,101306.50
2023-06-06T12:53:28.057Z,101290.91
2023-06-06T12:55:31.927Z,101289.44
2023-06-06T12:57:33.654Z,101296.66
2023-06-06T12:59:35.245Z,101301.66
2023-06-06T13:01:36.931Z,101294.81
2023-06-06T13:03:38.862Z,101288.63
2023-06-06T13:05:40.926Z,101287.78
2023-06-06T13:07:42.481Z,101284.00
2023-06-06T13:09:43.998Z,101281.31
2023-06-06T13:11:46.409Z,101289.13
2023-06-06T13:13:48.522Z,101291.91
2023-06-06T13:15:51.971Z,101284.69
2023-06-06T13:17:53.660Z,101289.22
2023-06-06T13:22:01.520Z,101281.66
2023-06-06T13:24:03.343Z,101279.94
2023-06-06T13:26:04.994Z,101277.88
2023-06-06T13:34:21.846Z,101280.22
2023-06-06T13:36:23.428Z,101282.91
2023-06-06T13:38:24.983Z,101271.91
2023-06-06T13:44:39.465Z,101270.31
2023-06-06T13:46:58.358Z,101265.78
2023-06-06T13:49:03.417Z,101266.88
2023-06-06T13:51:05.556Z,101257.69
2023-06-06T13:53:07.223Z,101262.38
2023-06-06T13:55:09.745Z,101256.59
2023-06-06T13:57:13.801Z,101258.91
2023-06-06T13:59:17.139Z,101252.94
2023-06-06T14:01:18.888Z,101260.16
2023-06-06T14:03:20.760Z,101251.50
2023-06-06T14:05:23.098Z,101257.69
2023-06-06T14:07:25.045Z,101252.47
2023-06-06T14:09:26.845Z,101250.63
2023-06-06T14:11:28.399Z,101252.59
2023-06-06T14:13:29.995Z,101247.84
2023-06-06T14:15:31.502Z,101247.19
2023-06-06T14:17:33.047Z,101249.06
2023-06-06T14:19:38.461Z,101244.16
2023-06-06T14:21:43.240Z,101250.84
2023-06-06T14:23:48.054Z,101249.59
2023-06-06T14:25:49.779Z,101250.38
2023-06-06T14:27:51.530Z,101249.16
2023-06-06T14:29:56.023Z,101243.38
2023-06-06T14:31:58.928Z,101241.53
2023-06-06T14:34:00.705Z,101245.47
2023-06-06T14:36:02.476Z,101240.94
2023-06-06T14:38:05.412Z,101233.22
2023-06-06T14:40:07.354Z,101239.06
2023-06-06T14:42:09.119Z,101227.06
2023-06-06T14:44:10.745Z,101234.88
2023-06-06T14:46:12.465Z,101223.53
2023-06-06T14:48:13.943Z,101224.63
2023-06-06T14:50:16.328Z,101230.72
2023-06-06T14:52:17.832Z,101219.25
2023-06-06T14:54:19.362Z,101229.53
2023-06-06T14:56:21.154Z,101221.16
2023-06-06T14:58:22.875Z,101216.63
2023-06-06T15:00:25.011Z,101219.47
2023-06-06T15:02:26.645Z,101221.69
2023-06-06T15:04:35.643Z,101220.69
2023-06-06T15:06:37.160Z,101226.41
2023-06-06T15:08:38.788Z,101212.13
2023-06-06T15:10:40.430Z,101221.88
2023-06-06T15:12:42.008Z,101221.88
2023-06-06T15:14:43.720Z,101213.94
2023-06-06T15:16:45.385Z,101225.66
2023-06-06T15:20:53.270Z,101214.09
2023-06-06T15:22:57.266Z,101217.88
2023-06-06T15:24:58.838Z,101211.66
2023-06-06T15:27:01.461Z,101213.34
2023-06-06T15:29:03.045Z,101217.03
2023-06-06T15:31:04.625Z,101209.69
2023-06-06T15:33:06.285Z,101215.78
2023-06-06T15:35:08.134Z,101211.25
2023-06-06T15:37:10.009Z,101211.53
2023-06-06T15:39:11.667Z,101214.34
2023-06-06T15:43:19.794Z,101208.97
2023-06-06T15:45:21.378Z,101208.72
2023-06-06T15:47:23.847Z,101201.25
2023-06-06T15:49:25.435Z,101205.75
2023-06-06T15:51:26.925Z,101205.88
2023-06-06T15:53:28.416Z,101206.03
2023-06-06T15:55:31.977Z,101204.91
2023-06-06T15:57:33.442Z,101201.25
2023-06-06T15:59:38.030Z,101199.41
2023-06-06T16:01:39.919Z,101192.31
2023-06-06T16:03:41.480Z,101194.16
2023-06-06T16:05:43.013Z,101191.47
2023-06-06T16:07:44.620Z,101190.34
2023-06-06T16:09:46.162Z,101187.41
2023-06-06T16:11:47.619Z,101190.69
2023-06-06T16:13:49.360Z,101185.19
2023-06-06T16:17:58.223Z,101190.41
2023-06-06T16:19:59.800Z,101193.97
2023-06-06T16:22:01.479Z,101199.94
2023-06-06T16:24:04.434Z,101194.56
2023-06-06T16:26:07.255Z,101197.34
2023-06-06T16:28:08.860Z,101192.13
2023-06-06T16:30:10.544Z,101195.66
2023-06-06T16:32:13.162Z,101196.53
2023-06-06T16:34:14.890Z,101193.81
2023-06-06T16:36:17.265Z,101189.28
2023-06-06T16:38:18.897Z,101193.81
2023-06-06T16:42:26.889Z,101186.22
2023-06-06T16:44:28.341Z,101190.06
2023-06-06T16:46:30.035Z,101193.94
2023-06-06T16:48:31.624Z,101200.88
2023-06-06T16:50:33.423Z,101193.41
2023-06-06T16:52:35.159Z,101198.38
2023-06-06T16:54:37.682Z,101196.53
2023-06-06T16:56:39.343Z,101207.16
2023-06-06T16:58:40.985Z,101194.81
2023-06-06T17:00:45.006Z,101197.66
2023-06-06T17:02:49.432Z,101195.09
2023-06-06T17:04:54.028Z,101197.41
2023-06-06T17:06:55.813Z,101193.72
2023-06-06T17:08:57.405Z,101187.53
2023-06-06T17:10:59.067Z,101187.91
2023-06-06T17:13:02.546Z,101186.50
2023-06-06T17:15:04.115Z,101182.44
2023-06-06T17:17:05.612Z,101186.09
2023-06-06T17:19:07.162Z,101184.84
2023-06-06T17:21:10.541Z,101191.78
2023-06-06T17:23:12.820Z,101188.66
2023-06-06T17:25:14.264Z,101189.91
2023-06-06T17:27:16.326Z,101197.66
2023-06-06T17:29:17.968Z,101192.41
2023-06-06T17:31:19.573Z,101197.94
2023-06-06T17:33:21.359Z,101197.59
2023-06-06T17:35:22.860Z,101194.19
2023-06-06T17:37:24.561Z,101203.97
2023-06-06T17:39:26.209Z,101194.47
2023-06-06T17:41:27.679Z,101199.25
2023-06-06T17:43:29.429Z,101191.59
2023-06-06T17:45:30.949Z,101195.97
2023-06-06T17:47:32.632Z,101205.03
2023-06-06T17:49:34.166Z,101204.19
2023-06-06T17:51:35.758Z,101200.78
2023-06-06T17:53:37.854Z,101201.03
2023-06-06T17:55:39.488Z,101200.03
2023-06-06T17:57:40.965Z,101200.03
2023-06-06T17:59:42.868Z,101199.78
2023-06-06T18:01:44.475Z,101205.03
2023-06-06T18:03:47.236Z,101202.34
2023-06-06T18:05:48.721Z,101205.16
2023-06-06T18:09:55.174Z,101203.47
2023-06-06T18:11:57.486Z,101214.13
2023-06-06T18:13:58.963Z,101208.22
2023-06-06T18:16:00.412Z,101213.06
2023-06-06T18:18:02.048Z,101208.53
2023-06-06T18:20:04.198Z,101210.25
2023-06-06T18:22:05.742Z,101211.81
2023-06-06T18:24:08.273Z,101215.63
2023-06-06T18:26:09.815Z,101212.34
2023-06-06T18:28:11.397Z,101214.19
2023-06-06T18:30:14.311Z,101219.44
2023-06-06T18:32:16.616Z,101210.94
2023-06-06T18:34:18.298Z,101222.78
2023-06-06T18:36:19.793Z,101216.75
2023-06-06T18:42:36.443Z,101227.09
2023-06-06T18:44:37.899Z,101222.94
2023-06-06T18:46:39.550Z,101224.19
2023-06-06T18:48:42.186Z,101222.63
2023-06-06T18:54:59.253Z,101223.13
2023-06-06T18:57:02.920Z,101226.56
2023-06-06T18:59:08.750Z,101222.19
2023-06-06T19:01:10.450Z,101221.06
2023-06-06T19:03:12.176Z,101226.19
2023-06-06T19:05:15.360Z,101228.00
2023-06-06T19:07:17.118Z,101226.47
2023-06-06T19:09:19.219Z,101228.19
2023-06-06T19:11:21.995Z,101227.50
2023-06-06T19:17:38.972Z,101227.00
2023-06-06T19:19:41.270Z,101226.44
2023-06-06T19:21:42.807Z,101226.63
2023-06-06T19:23:46.087Z,101233.72
2023-06-06T19:30:00.975Z,101253.56
2023-06-06T19:32:03.726Z,101256.97
2023-06-06T19:34:05.843Z,101254.47
2023-06-06T19:36:07.767Z,101258.88
2023-06-06T19:40:22.078Z,101256.69
2023-06-06T19:42:23.652Z,101269.34
2023-06-06T19:44:25.194Z,101263.94
2023-06-06T19:46:26.807Z,101264.34
2023-06-06T19:48:28.377Z,101266.34
2023-06-06T19:50:29.830Z,101266.63
2023-06-06T19:52:31.866Z,101266.88
2023-06-06T19:54:33.469Z,101271.75
2023-06-06T19:56:35.048Z,101270.84
2023-06-06T19:58:36.588Z,101268.59
2023-06-06T20:00:38.217Z,101269.56
2023-06-06T20:02:40.030Z,101279.78
2023-06-06T20:04:42.329Z,101276.63
2023-06-06T20:06:43.831Z,101287.84
2023-06-06T20:08:45.377Z,101290.13
2023-06-06T20:10:46.861Z,101292.69
2023-06-06T20:12:48.370Z,101295.50
2023-06-06T20:14:49.871Z,101292.13
2023-06-06T20:16:52.163Z,101300.03
2023-06-06T20:18:53.741Z,101285.28
2023-06-06T20:20:55.807Z,101301.16
2023-06-06T20:22:57.378Z,101304.25
2023-06-06T20:25:00.604Z,101302.28
2023-06-06T20:29:12.510Z,101307.69
2023-06-06T20:31:14.058Z,101302.41
2023-06-06T20:33:15.658Z,101308.91
2023-06-06T20:35:17.400Z,101311.50
2023-06-06T20:37:18.996Z,101311.84
2023-06-06T20:39:34.649Z,101314.66
2023-06-06T20:41:36.515Z,101310.78
2023-06-06T20:43:38.191Z,101313.31
2023-06-06T20:45:40.039Z,101314.06
2023-06-06T20:47:41.745Z,101317.41
2023-06-06T20:49:43.753Z,101320.50
2023-06-06T20:51:45.449Z,101309.53
2023-06-06T20:53:46.922Z,101320.09
2023-06-06T20:55:48.857Z,101319.94
2023-06-06T20:57:51.828Z,101314.38
2023-06-06T20:59:54.077Z,101309.41
2023-06-06T21:01:57.025Z,101321.38
2023-06-06T21:03:58.917Z,101320.78
2023-06-06T21:06:00.448Z,101322.88
2023-06-06T21:08:01.903Z,101317.91
2023-06-06T21:10:04.304Z,101320.97
2023-06-06T21:12:07.220Z,101321.22
2023-06-06T21:14:08.725Z,101319.75
2023-06-06T21:16:10.259Z,101316.59
2023-06-06T21:18:11.853Z,101320.38
2023-06-06T21:20:14.026Z,101325.16
2023-06-06T21:22:15.754Z,101315.63
2023-06-06T21:24:17.547Z,101309.66
2023-06-06T21:26:19.239Z,101310.88
2023-06-06T21:28:20.877Z,101312.84
2023-06-06T21:30:22.366Z,101314.94
2023-06-06T21:32:23.998Z,101316.03
2023-06-06T21:34:25.604Z,101317.13
2023-06-06T21:36:27.193Z,101318.25
2023-06-06T21:38:28.854Z,101316.78
2023-06-06T21:40:30.330Z,101313.47
2023-06-06T21:42:31.924Z,101317.28
2023-06-06T21:44:33.463Z,101327.31
2023-06-06T21:46:35.891Z,101324.00
2023-06-06T21:48:37.549Z,101322.41
2023-06-06T21:50:39.063Z,101315.44
2023-06-06T21:52:40.733Z,101325.34
2023-06-06T21:54:42.447Z,101325.47
2023-06-06T21:56:45.383Z,101327.41
2023-06-06T21:58:47.121Z,101328.41
2023-06-06T22:00:48.605Z,101324.00
2023-06-06T22:02:50.189Z,101324.25
2023-06-06T22:04:52.194Z,101326.06
2023-06-06T22:06:53.629Z,101329.03
2023-06-06T22:08:55.248Z,101330.84
2023-06-06T22:10:57.524Z,101331.81
2023-06-06T22:12:59.074Z,101327.53
2023-06-06T22:15:00.692Z,101336.56
2023-06-06T22:17:02.805Z,101330.34
2023-06-06T22:19:04.522Z,101326.91
2023-06-06T22:21:06.121Z,101329.72
2023-06-06T22:23:07.651Z,101328.97
2023-06-06T22:25:09.479Z,101323.59
2023-06-06T22:27:11.055Z,101324.69
2023-06-06T22:31:19.147Z,101322.16
2023-06-06T22:33:20.699Z,101325.81
2023-06-06T22:35:22.291Z,101324.22
2023-06-06T22:37:25.761Z,101318.84
2023-06-06T22:39:27.483Z,101320.78
2023-06-06T22:41:28.939Z,101324.44
2023-06-06T22:43:30.675Z,101330.81
2023-06-06T22:45:32.165Z,101327.38
2023-06-06T22:47:33.668Z,101329.94
2023-06-06T22:49:35.424Z,101332.75
2023-06-06T22:51:37.984Z,101335.56
2023-06-06T22:53:39.470Z,101338.25
2023-06-06T22:55:41.122Z,101333.84
2023-06-06T22:57:42.631Z,101335.66
2023-06-06T22:59:44.945Z,101338.47
2023-06-06T23:01:46.519Z,101333.22
2023-06-06T23:03:48.092Z,101334.06
2023-06-06T23:05:50.431Z,101336.88
2023-06-06T23:09:58.292Z,101327.25
2023-06-06T23:11:59.833Z,101329.19
2023-06-06T23:14:01.678Z,101332.84
2023-06-06T23:16:03.711Z,101329.31
2023-06-06T23:18:06.521Z,101325.78
2023-06-06T23:20:10.553Z,101326.03
2023-06-06T23:22:13.573Z,101320.66
2023-06-06T23:24:15.060Z,101328.84
2023-06-06T23:26:16.590Z,101326.16
2023-06-06T23:28:18.697Z,101324.53
2023-06-06T23:30:20.539Z,101323.69
2023-06-06T23:32:22.031Z,101324.66
2023-06-06T23:34:23.693Z,101328.31
2023-06-06T23:36:25.210Z,101323.81
2023-06-06T23:38:27.518Z,101332.84
2023-06-06T23:40:28.968Z,101327.59
2023-06-06T23:42:30.980Z,101324.91
2023-06-06T23:44:32.696Z,101332.09
2023-06-06T23:46:34.658Z,101336.63
2023-06-06T23:48:36.146Z,101328.69
2023-06-06T23:50:37.583Z,101331.47
2023-06-06T23:52:39.182Z,101336.84
2023-06-06T23:54:41.421Z,101320.88
2023-06-06T23:56:42.878Z,101321.72
2023-06-06T23:58:44.377Z,101327.22
